KPLR/PLR METAR and TAF weather

Enter ICAO airport designator
Station Type Date Time Source
KPLR METAR 2020/04/05 22:15 UTC NOAA

KPLR 052215Z AUTO 00000KT 10SM CLR 27/12 A2999 RMK A01


Station Type Date Time Source
KPLR Decoded METAR 2020/04/05 22:15 UTC NOAA

Station name not available
Apr 05, 2020 - 06:15 PM EDT / 2020.04.05 2215 UTC
Wind: Calm:0
Visibility: 10 mile(s):0
Sky conditions: clear
Temperature: 80 F (27 C)
Dew Point: 53 F (12 C)
Relative Humidity: 39%
Pressure (altimeter): 29.99 in. Hg (1015 hPa)
ob: KPLR 052215Z AUTO 00000KT 10SM CLR 27/12 A2999 RMK A01
cycle: 22

Station Type Date Time Source
KPLR TAF UTC NOAA

Error!

Example: see airport list